PWM - Portland Intl Jetport

Pirep is a free, collaborative database of all public and private airports located within the United States. All pilots are welcome to contribute, edit, and improve any airport they have local knowledge about, no registration required.
Uploaded photos will be licensed under a CC BY-SA 4.0 license. Please only upload photos you have the rights to use.
Tags
Public
Car Rental
Flying Clubs
METAR / TAF
Webcam
Events
Edit Tags
Food
Camping
Lodging
Bicycles
Swimming
Golfing
Fishing
Hot Springs
Museum
Airpark
Upcoming Events
*
*
*

Where exactly on/near the airport is this event taking place?

Is there a webpage with more information for this event?

Who should be contacted for more information?

What is this event all about?

Repeat every
Description
Last updated: 2023-11-14 00:18:17 EST
Transient Parking
Fuel Location
Landing & Tie-down Fees
Crew Car Availability
Flying Clubs
Last updated: 2023-11-14 00:18:48 EST
WiFi Access
Airport Statistics
Location: Portland, ME
Elevation: 75ft
Sectional: New York
Activation date: Apr 1940
Fuel: 100LL, A (prices)
Runway 11/29: 7,200ft
Runway 18/36: 6,100ft
Access: Open to the public
Current Weather — VFR
  • Weather data is strictly informational and not for flight planning purposes.
  • METAR
    2024-06-17 08:51:00 EDT
    Ceiling Wind Temperature Dewpoint Weather Visbility
    25,000ft 210° @ 3kt 62°F 55°F N/A 10SM
    Clouds: Scattered @ 15,000ft, Overcast @ 25,000ft
    Raw: KPWM 171251Z 21003KT 10SM SCT150 OVC250 17/13 A3020 RMK AO2 SLP226 T01720133
  • TAF
    2024-06-17 08:00:00 EDT – 2024-06-17 11:00:00 EDT
    Ceiling Wind Weather Visbility
    25,000ft 210° @ 6kt N/A 6SM
    Clouds: Scattered @ 15,000ft, Overcast @ 25,000ft
    Raw: KPWM 171121Z 1712/1812 21006KT P6SM SCT150 OVC250 FM171500 18008G16KT P6SM BKN150 FM180900 24002KT 6SM BR BKN250
  • TAF
    2024-06-17 11:00:00 EDT – 2024-06-18 05:00:00 EDT
    Ceiling Wind Weather Visbility
    15,000ft 180° @ 8kt, gusts 16kt N/A 6SM
    Clouds: Broken @ 15,000ft
    Raw: KPWM 171121Z 1712/1812 21006KT P6SM SCT150 OVC250 FM171500 18008G16KT P6SM BKN150 FM180900 24002KT 6SM BR BKN250
  • TAF
    2024-06-18 05:00:00 EDT – 2024-06-18 08:00:00 EDT
    Ceiling Wind Weather Visbility
    25,000ft 240° @ 2kt Mist 6SM
    Clouds: Broken @ 25,000ft
    Raw: KPWM 171121Z 1712/1812 21006KT P6SM SCT150 OVC250 FM171500 18008G16KT P6SM BKN150 FM180900 24002KT 6SM BR BKN250
Click/tap to add an annotation marker to the map
Direct links to live image URLs will be displayed inline on this page. URLs to separate webpages will be linked to.
URL:
Direct links to live image URLs will be displayed inline on this page. URLs to separate webpages will be linked to.
URL:
Remarks
  • Existed prior to 1959.
  • No tgls durg snow removal.
  • Paew adj to rwys ngts; gnd vehicles monitor 120.9 when atct clsd.
  • Prior to any run-up ctc arpt ops on freq 129.95 or call 207-756-8310.
  • Acft emergs btn 0000-0545 call portland air rescue 207-874-8576.
Comments
Leave a comment What was your experience like at this airport?